Time;durP1;ratioP1;P1;durP2;ratioP2;P2;SDS_P1;SDS_P2;PMS_P1;PMS_P2;Temp;Humidity;BMP_temperature;BMP_pressure;BME280_temperature;BME280_humidity;BME280_pressure;Samples;Min_cycle;Max_cycle;Signal;HPM_P1;HPM_P2
2022/03/09 00:01:01;;;;;;;15.13;7.70;;;;;;;-2.55;82.76;94620.47;4942016;28;20208;-76
2022/03/09 00:03:28;;;;;;;15.60;7.40;;;;;;;-2.61;82.64;94616.97;4946022;29;20204;-77
2022/03/09 00:05:55;;;;;;;17.88;9.43;;;;;;;-2.67;83.07;94617.13;4944797;29;20207;-77
2022/03/09 00:08:21;;;;;;;22.92;10.07;;;;;;;-2.62;82.92;94622.53;4939880;28;20594;-76
2022/03/09 00:10:48;;;;;;;13.93;7.72;;;;;;;-2.56;82.88;94617.03;4941381;29;20238;-77
2022/03/09 00:13:15;;;;;;;13.90;5.82;;;;;;;-2.51;82.82;94616.28;4946736;29;20242;-77
2022/03/09 00:15:42;;;;;;;14.25;6.53;;;;;;;-2.57;82.47;94626.03;4945402;29;20203;-78
2022/03/09 00:18:10;;;;;;;15.10;6.95;;;;;;;-2.63;82.24;94620.91;4940236;28;20214;-77
2022/03/09 00:20:37;;;;;;;15.35;7.35;;;;;;;-2.62;82.74;94622.53;4940485;28;20239;-75
2022/03/09 00:23:04;;;;;;;15.27;7.55;;;;;;;-2.59;82.28;94624.66;4946608;29;20207;-75
2022/03/09 00:25:31;;;;;;;9.88;5.70;;;;;;;-2.53;82.23;94623.69;4945502;29;20199;-75
2022/03/09 00:27:58;;;;;;;21.48;8.40;;;;;;;-2.47;82.26;94621.91;4933775;28;20207;-75
2022/03/09 00:30:25;;;;;;;18.05;9.38;;;;;;;-2.56;82.21;94618.88;4945510;29;20304;-75
2022/03/09 00:32:52;;;;;;;10.05;4.75;;;;;;;-2.51;81.78;94608.34;4939383;28;20246;-75
2022/03/09 00:35:21;;;;;;;15.70;7.47;;;;;;;-2.47;81.98;94608.66;4939640;28;20242;-76
2022/03/09 00:37:47;;;;;;;9.82;5.93;;;;;;;-2.33;82.03;94609.88;4933310;29;20235;-75
2022/03/09 00:40:14;;;;;;;15.73;6.75;;;;;;;-2.45;82.04;94615.28;4934198;28;20707;-75
2022/03/09 00:42:41;;;;;;;12.25;6.25;;;;;;;-2.38;82.13;94610.63;4964937;28;20203;-76
2022/03/09 00:45:10;;;;;;;17.80;8.05;;;;;;;-2.58;81.81;94611.16;4939135;28;20208;-75
2022/03/09 00:47:37;;;;;;;15.85;7.78;;;;;;;-2.60;82.28;94621.22;4944751;28;20211;-76
2022/03/09 00:50:05;;;;;;;14.98;6.85;;;;;;;-2.43;81.90;94607.09;4945874;29;20234;-75
2022/03/09 00:52:33;;;;;;;18.25;8.27;;;;;;;-2.45;81.47;94604.69;4940692;29;20203;-75
2022/03/09 00:55:00;;;;;;;15.43;8.20;;;;;;;-2.49;81.69;94598.28;4939392;28;20215;-75
2022/03/09 00:57:27;;;;;;;20.08;9.10;;;;;;;-2.47;80.98;94596.19;4944092;28;20215;-76
2022/03/09 00:59:54;;;;;;;18.23;7.20;;;;;;;-2.49;81.13;94597.50;4934650;29;20290;-75
2022/03/09 01:02:21;;;;;;;17.08;6.80;;;;;;;-2.48;81.20;94594.59;4944187;28;20200;-74
2022/03/09 01:04:48;;;;;;;10.40;4.93;;;;;;;-2.36;80.89;94592.59;4946100;29;20219;-76
2022/03/09 01:07:15;;;;;;;14.50;6.35;;;;;;;-2.32;80.65;94588.38;4941750;28;20230;-75
2022/03/09 01:09:43;;;;;;;19.85;8.88;;;;;;;-2.28;80.35;94584.19;4939359;28;20203;-75
2022/03/09 01:12:10;;;;;;;18.25;8.20;;;;;;;-2.41;79.68;94584.59;4952160;28;20215;-76
2022/03/09 01:14:37;;;;;;;15.77;6.82;;;;;;;-2.28;79.73;94584.19;4940942;28;20674;-75
2022/03/09 01:17:04;;;;;;;16.52;8.60;;;;;;;-2.13;79.81;94580.09;4947254;28;20204;-76
2022/03/09 01:19:31;;;;;;;15.27;6.65;;;;;;;-2.22;79.42;94577.91;4948990;29;20238;-75
2022/03/09 01:21:58;;;;;;;11.77;6.28;;;;;;;-2.29;79.05;94577.28;4945668;29;20207;-75
2022/03/09 01:24:25;;;;;;;21.60;10.18;;;;;;;-2.26;79.30;94582.09;4952729;28;20568;-75
2022/03/09 01:26:53;;;;;;;20.20;8.40;;;;;;;-2.12;78.75;94571.09;4945346;29;20206;-75
2022/03/09 01:29:20;;;;;;;14.25;7.25;;;;;;;-2.19;78.65;94572.09;4941989;28;20203;-75
2022/03/09 01:31:47;;;;;;;17.60;8.57;;;;;;;-2.21;78.89;94574.22;4955645;28;20211;-75
2022/03/09 01:34:14;;;;;;;9.00;4.32;;;;;;;-2.11;78.97;94573.50;4942213;28;20246;-74
2022/03/09 01:36:41;;;;;;;15.73;8.82;;;;;;;-2.43;79.12;94564.66;4955291;28;20589;-75
2022/03/09 01:39:08;;;;;;;18.60;8.95;;;;;;;-2.23;78.97;94576.31;4951630;28;20232;-75
2022/03/09 01:41:35;;;;;;;16.00;7.85;;;;;;;-2.54;78.85;94577.00;4958575;28;20207;-75
2022/03/09 01:44:08;;;;;;;12.98;6.55;;;;;;;-2.27;78.93;94579.69;4951842;28;20210;-75
2022/03/09 01:46:34;;;;;;;17.65;8.27;;;;;;;-2.24;78.57;94580.00;4948243;29;20211;-77
2022/03/09 01:49:01;;;;;;;13.82;6.93;;;;;;;-2.16;78.03;94579.56;4942222;28;20227;-77
2022/03/09 01:51:28;;;;;;;19.75;8.57;;;;;;;-2.26;78.25;94583.97;4942690;28;20223;-75
2022/03/09 01:53:55;;;;;;;12.00;6.13;;;;;;;-2.22;77.51;94585.88;4954227;29;20222;-76
2022/03/09 01:56:22;;;;;;;11.25;6.45;;;;;;;-2.27;77.28;94583.16;4942426;28;20211;-76
2022/03/09 01:58:49;;;;;;;17.00;8.00;;;;;;;-2.13;77.42;94580.09;4954677;29;20233;-76
2022/03/09 02:01:17;;;;;;;15.70;5.80;;;;;;;-2.16;77.05;94586.72;4942126;28;20255;-76
2022/03/09 02:03:44;;;;;;;20.95;8.40;;;;;;;-2.38;77.61;94584.09;4948452;28;20567;-77
2022/03/09 02:06:11;;;;;;;19.35;9.00;;;;;;;-2.46;77.67;94584.50;4948664;29;20273;-76
2022/03/09 02:11:24;;;;;;;18.02;8.38;;;;;;;-2.30;76.84;94580.19;4948256;29;20247;-76
2022/03/09 02:13:51;;;;;;;15.32;7.88;;;;;;;-2.25;77.58;94578.41;4945064;29;20203;-76
2022/03/09 02:16:19;;;;;;;13.15;7.40;;;;;;;-2.31;77.77;94583.88;4951986;28;20587;-75
2022/03/09 02:18:46;;;;;;;19.58;8.70;;;;;;;-2.36;77.30;94584.66;4945320;29;20213;-75
2022/03/09 02:21:16;;;;;;;15.90;6.15;;;;;;;-2.24;77.12;94579.22;4941485;28;20626;-75
2022/03/09 02:23:46;;;;;;;16.98;8.10;;;;;;;-2.46;76.57;94578.44;4944592;28;20200;-75
2022/03/09 02:26:13;;;;;;;12.50;5.93;;;;;;;-2.38;77.45;94578.00;4947812;28;20203;-75
2022/03/09 02:28:45;;;;;;;13.63;7.40;;;;;;;-2.54;76.51;94571.69;4945653;29;20795;-76
2022/03/09 02:31:12;;;;;;;17.77;8.88;;;;;;;-2.54;76.91;94575.16;4940771;28;20678;-75
2022/03/09 02:33:39;;;;;;;15.25;6.72;;;;;;;-2.42;76.85;94571.56;4942495;28;20294;-76
2022/03/09 02:36:06;;;;;;;21.13;7.60;;;;;;;-2.26;76.52;94574.16;4952767;28;20312;-77
2022/03/09 02:38:33;;;;;;;15.57;8.02;;;;;;;-2.32;76.86;94571.66;4942637;28;20211;-76
2022/03/09 02:41:01;;;;;;;10.40;5.05;;;;;;;-2.39;76.79;94569.22;4959604;28;20230;-75
2022/03/09 02:43:28;;;;;;;16.73;5.88;;;;;;;-2.34;76.12;94563.19;4959825;28;20222;-75
2022/03/09 02:45:55;;;;;;;17.75;6.68;;;;;;;-2.26;76.00;94576.00;4941699;29;20210;-75
2022/03/09 02:48:21;;;;;;;15.63;6.93;;;;;;;-2.36;75.83;94576.69;4940807;28;20228;-75
2022/03/09 02:50:48;;;;;;;9.15;3.92;;;;;;;-2.33;76.07;94565.59;4946961;28;20670;-75
2022/03/09 02:53:15;;;;;;;15.18;7.72;;;;;;;-2.33;75.87;94576.22;4948219;29;20222;-75
2022/03/09 02:55:42;;;;;;;16.50;8.02;;;;;;;-2.49;76.10;94577.06;4947121;28;20212;-75
2022/03/09 02:58:11;;;;;;;20.35;7.85;;;;;;;-2.44;76.73;94578.97;4948028;29;20214;-76
2022/03/09 03:00:38;;;;;;;22.08;8.25;;;;;;;-2.56;76.91;94576.44;4940748;29;20227;-76
2022/03/09 03:03:05;;;;;;;16.98;8.52;;;;;;;-2.64;76.60;94574.25;4941115;28;20203;-77
2022/03/09 03:05:31;;;;;;;14.32;6.65;;;;;;;-2.52;76.09;94577.56;4946665;28;20204;-77
2022/03/09 03:07:58;;;;;;;12.07;6.20;;;;;;;-2.54;76.37;94574.34;4947513;28;20238;-77
2022/03/09 03:10:25;;;;;;;14.38;6.47;;;;;;;-2.48;75.71;94573.38;4941285;29;20203;-76
2022/03/09 03:12:52;;;;;;;13.85;7.53;;;;;;;-2.67;76.56;94572.88;4940218;28;20203;-75
2022/03/09 03:15:20;;;;;;;14.35;5.97;;;;;;;-2.71;76.95;94573.59;4945473;28;20682;-76
2022/03/09 03:17:47;;;;;;;18.10;8.60;;;;;;;-2.57;76.46;94580.94;4935652;29;20557;-76
2022/03/09 03:20:14;;;;;;;15.38;6.88;;;;;;;-2.72;76.62;94588.72;4945289;28;20598;-76
2022/03/09 03:22:41;;;;;;;16.00;7.07;;;;;;;-2.65;76.85;94591.19;4947364;29;20205;-76
2022/03/09 03:25:08;;;;;;;7.70;3.35;;;;;;;-2.61;77.19;94579.06;4942579;29;20694;-76
2022/03/09 03:27:35;;;;;;;13.63;6.13;;;;;;;-2.61;76.70;94581.72;4940243;28;20203;-76
2022/03/09 03:30:02;;;;;;;18.23;8.65;;;;;;;-2.84;77.30;94595.16;4944032;28;20211;-76
2022/03/09 03:32:31;;;;;;;18.40;7.40;;;;;;;-2.87;77.57;94586.66;4948532;29;20242;-75
2022/03/09 03:34:57;;;;;;;14.90;7.32;;;;;;;-2.91;77.62;94593.53;4944114;28;20675;-74
2022/03/09 03:37:24;;;;;;;13.07;7.20;;;;;;;-2.88;76.88;94595.69;4946097;28;20234;-74
2022/03/09 03:39:51;;;;;;;21.00;8.40;;;;;;;-2.75;76.96;94586.56;4943473;29;20238;-75
2022/03/09 03:42:18;;;;;;;24.30;8.68;;;;;;;-2.74;77.79;94587.38;4952923;28;20554;-75
2022/03/09 03:44:45;;;;;;;10.68;5.53;;;;;;;-2.74;77.15;94584.72;4952991;28;20571;-75
2022/03/09 03:47:12;;;;;;;17.77;8.85;;;;;;;-2.95;78.22;94591.59;4948761;28;20575;-76
2022/03/09 03:49:40;;;;;;;22.83;7.07;;;;;;;-2.98;77.26;94590.22;4944600;29;20701;-75
2022/03/09 03:52:07;;;;;;;22.13;7.97;;;;;;;-3.00;77.29;94592.31;4940051;28;20206;-75
2022/03/09 03:54:34;;;;;;;18.67;6.85;;;;;;;-2.95;77.54;94586.28;4941607;28;20726;-74
2022/03/09 03:57:01;;;;;;;17.98;7.78;;;;;;;-2.88;76.70;94592.22;4951744;29;20654;-75
2022/03/09 03:59:28;;;;;;;10.02;5.43;;;;;;;-3.04;76.95;94583.28;4952692;28;20210;-75
2022/03/09 04:01:54;;;;;;;13.63;7.00;;;;;;;-2.98;77.48;94584.94;4939543;28;20277;-75
2022/03/09 04:04:23;;;;;;;16.65;6.55;;;;;;;-2.90;76.90;94581.06;4941034;28;20207;-76
2022/03/09 04:06:52;;;;;;;9.25;5.68;;;;;;;-2.79;76.67;94585.44;4946222;29;20254;-77
2022/03/09 04:09:19;;;;;;;13.52;6.72;;;;;;;-2.73;76.80;94592.41;4946604;29;20223;-76
2022/03/09 04:11:46;;;;;;;18.30;8.07;;;;;;;-2.74;77.11;94590.03;4933547;29;20206;-76
2022/03/09 04:14:13;;;;;;;20.20;10.75;;;;;;;-2.93;77.12;94592.16;4946898;29;20531;-76
2022/03/09 04:16:40;;;;;;;18.02;7.82;;;;;;;-2.94;76.73;94587.91;4939991;29;20686;-75
2022/03/09 04:19:06;;;;;;;13.73;6.55;;;;;;;-2.83;77.37;94586.19;4939877;28;20210;-76
2022/03/09 04:21:34;;;;;;;14.93;7.55;;;;;;;-2.73;76.57;94581.03;4933645;29;20231;-76
2022/03/09 04:24:03;;;;;;;22.40;7.13;;;;;;;-3.08;77.26;94584.78;4947193;29;20573;-76
2022/03/09 04:26:30;;;;;;;16.58;8.02;;;;;;;-2.93;76.55;94598.25;4945544;28;20203;-77
2022/03/09 04:28:56;;;;;;;15.10;7.20;;;;;;;-2.93;76.92;94592.97;4947407;29;20622;-77
2022/03/09 04:31:23;;;;;;;27.20;7.88;;;;;;;-3.03;76.32;94592.81;4944705;28;20204;-77
2022/03/09 04:33:50;;;;;;;12.65;6.15;;;;;;;-3.10;76.10;94588.72;4946846;29;20594;-76
2022/03/09 04:36:17;;;;;;;15.68;7.72;;;;;;;-3.10;76.37;94586.06;4944493;28;20224;-76
2022/03/09 04:38:44;;;;;;;15.80;8.00;;;;;;;-3.06;77.01;94592.50;4934935;29;20214;-75
2022/03/09 04:41:12;;;;;;;16.55;7.82;;;;;;;-3.12;76.42;94593.47;4944389;28;20314;-75
2022/03/09 04:43:40;;;;;;;12.77;7.13;;;;;;;-3.08;76.52;94592.75;4945821;29;20218;-76
2022/03/09 04:46:07;;;;;;;17.77;7.68;;;;;;;-3.18;76.50;94595.25;4941862;29;20559;-76
2022/03/09 04:48:34;;;;;;;17.13;8.07;;;;;;;-3.20;76.80;94589.41;4941271;28;20231;-76
2022/03/09 04:51:02;;;;;;;15.75;7.55;;;;;;;-3.18;76.94;94595.25;4946670;28;20212;-76
2022/03/09 04:53:29;;;;;;;17.17;7.82;;;;;;;-3.12;77.15;94594.25;4950112;29;20222;-75
2022/03/09 04:55:56;;;;;;;22.10;8.98;;;;;;;-2.92;76.33;94589.25;4946837;29;20237;-77
2022/03/09 04:58:25;;;;;;;15.77;5.97;;;;;;;-2.91;76.08;94585.56;4939934;28;20203;-76
2022/03/09 05:00:51;;;;;;;9.00;5.35;;;;;;;-2.99;76.70;94588.63;4946945;29;20231;-75
2022/03/09 05:03:18;;;;;;;20.38;9.60;;;;;;;-3.00;76.93;94589.66;4943358;28;20214;-78
2022/03/09 05:05:45;;;;;;;17.42;6.75;;;;;;;-2.93;76.80;94590.31;4944706;28;20218;-79
2022/03/09 05:08:12;;;;;;;16.77;6.82;;;;;;;-3.00;76.51;94602.09;4949953;29;20606;-76
2022/03/09 05:10:39;;;;;;;16.42;7.47;;;;;;;-3.00;76.94;94608.22;4937059;29;20267;-75
2022/03/09 05:13:06;;;;;;;13.52;6.53;;;;;;;-3.03;76.45;94607.91;4949567;29;20271;-75
2022/03/09 05:15:35;;;;;;;19.67;7.97;;;;;;;-3.10;76.81;94612.56;4947868;29;20207;-75
2022/03/09 05:18:02;;;;;;;19.60;8.80;;;;;;;-3.01;77.07;94609.28;4942633;28;20329;-75
2022/03/09 05:20:29;;;;;;;11.32;5.47;;;;;;;-2.86;76.54;94622.72;4943926;28;20235;-76
2022/03/09 05:22:56;;;;;;;14.43;6.38;;;;;;;-2.93;76.68;94619.44;4953791;29;20207;-76
2022/03/09 05:25:23;;;;;;;18.52;9.13;;;;;;;-2.99;76.95;94615.13;4955129;28;20215;-75
2022/03/09 05:27:50;;;;;;;16.65;7.38;;;;;;;-3.00;76.81;94624.09;4949026;28;20294;-77
2022/03/09 05:30:17;;;;;;;24.63;10.73;;;;;;;-3.05;76.89;94632.00;4948206;29;20211;-75
2022/03/09 05:32:45;;;;;;;18.25;7.78;;;;;;;-2.82;76.47;94620.38;4941894;29;20345;-76
2022/03/09 05:35:12;;;;;;;19.15;9.20;;;;;;;-2.73;74.88;94632.16;4939857;28;20737;-77
2022/03/09 05:37:40;;;;;;;13.75;6.03;;;;;;;-2.67;75.14;94633.03;4948073;28;20215;-78
2022/03/09 05:40:09;;;;;;;18.55;7.43;;;;;;;-2.65;75.33;94620.34;4949464;29;20211;-75
2022/03/09 05:42:36;;;;;;;13.73;6.35;;;;;;;-2.55;75.49;94631.06;4968758;28;20207;-75
2022/03/09 05:45:03;;;;;;;9.48;4.70;;;;;;;-2.23;74.85;94628.56;4955231;28;20211;-75
2022/03/09 05:47:30;;;;;;;15.70;6.72;;;;;;;-2.18;74.41;94626.75;4942258;29;20226;-76
2022/03/09 05:49:59;;;;;;;16.05;8.15;;;;;;;-2.10;73.93;94627.38;4941984;28;20207;-77
2022/03/09 05:52:25;;;;;;;9.95;5.63;;;;;;;-2.09;73.70;94628.97;4947984;28;20204;-76
2022/03/09 05:54:52;;;;;;;17.42;8.63;;;;;;;-2.06;73.71;94636.44;4948522;29;20278;-78
2022/03/09 05:57:21;;;;;;;19.70;8.77;;;;;;;-1.95;74.01;94635.50;4942538;29;20246;-76
2022/03/09 05:59:50;;;;;;;19.30;8.95;;;;;;;-1.90;74.12;94638.19;4941133;28;20212;-74
2022/03/09 06:02:17;;;;;;;15.82;8.40;;;;;;;-2.16;74.41;94640.56;4947925;28;20588;-76
2022/03/09 06:04:45;;;;;;;14.70;7.82;;;;;;;-2.09;73.44;94639.59;4948918;29;20257;-76
2022/03/09 06:07:13;;;;;;;10.85;5.85;;;;;;;-2.19;73.97;94641.06;4943049;29;20265;-76
2022/03/09 06:09:40;;;;;;;13.93;8.23;;;;;;;-2.23;74.55;94644.47;4941840;28;20211;-76
2022/03/09 06:12:08;;;;;;;11.18;6.05;;;;;;;-2.24;74.01;94648.19;4946445;28;20215;-77
2022/03/09 06:14:34;;;;;;;18.70;8.93;;;;;;;-1.94;73.69;94643.22;4948703;29;20207;-76
2022/03/09 06:17:01;;;;;;;14.80;6.57;;;;;;;-1.87;72.91;94635.03;4944140;29;20210;-74
2022/03/09 06:19:28;;;;;;;11.60;6.13;;;;;;;-1.26;72.23;94643.59;4941550;28;20212;-77
2022/03/09 06:21:55;;;;;;;20.60;9.73;;;;;;;-0.59;70.10;94643.00;4945191;28;20238;-76
2022/03/09 06:24:23;;;;;;;16.85;8.38;;;;;;;-0.35;68.27;94628.22;4949091;29;20218;-75
2022/03/09 06:26:50;;;;;;;16.33;7.85;;;;;;;-0.08;67.60;94638.69;4944891;29;20285;-77
2022/03/09 06:29:17;;;;;;;20.67;9.48;;;;;;;0.29;66.25;94639.34;4941339;28;20222;-76
2022/03/09 06:31:44;;;;;;;15.95;7.50;;;;;;;1.27;69.40;94628.44;4944858;28;20211;-73
2022/03/09 06:34:11;;;;;;;19.13;10.25;;;;;;;1.43;72.32;94627.34;4947746;28;20235;-73
2022/03/09 06:36:42;;;;;;;21.65;10.00;;;;;;;2.83;62.96;94623.50;4944948;29;20234;-74
2022/03/09 06:39:16;;;;;;;17.60;8.25;;;;;;;3.35;65.84;94616.63;4940606;29;20195;-73
2022/03/09 06:41:46;;;;;;;32.63;12.88;;;;;;;3.53;69.93;94629.31;4953609;28;20222;-74
2022/03/09 06:44:14;;;;;;;34.95;13.73;;;;;;;3.69;58.60;94618.44;4944050;28;20205;-73
2022/03/09 06:46:42;;;;;;;18.95;9.90;;;;;;;4.05;66.41;94616.13;4960665;28;20590;-74
2022/03/09 06:49:09;;;;;;;28.90;11.00;;;;;;;3.16;58.30;94631.78;4947658;28;20218;-76
2022/03/09 06:51:35;;;;;;;27.65;12.13;;;;;;;3.61;56.93;94629.75;4952803;28;20302;-76
2022/03/09 06:54:02;;;;;;;19.30;9.38;;;;;;;2.19;57.96;94638.88;4942225;29;20215;-76
2022/03/09 06:56:29;;;;;;;14.77;8.35;;;;;;;1.52;61.31;94651.63;4940723;28;20539;-77
2022/03/09 06:58:58;;;;;;;18.90;9.20;;;;;;;1.76;59.67;94641.16;4945740;28;20203;-77
2022/03/09 07:01:24;;;;;;;21.55;9.10;;;;;;;2.64;59.60;94646.59;4947329;29;20235;-77
2022/03/09 07:03:51;;;;;;;23.95;10.27;;;;;;;2.96;56.74;94637.31;4934471;29;20672;-80
2022/03/09 07:06:18;;;;;;;16.52;7.97;;;;;;;2.19;58.70;94641.53;4953080;28;20229;-78
2022/03/09 07:08:45;;;;;;;18.95;9.02;;;;;;;2.30;57.90;94640.41;4959575;28;20233;-77
2022/03/09 07:11:12;;;;;;;11.27;5.40;;;;;;;3.07;57.42;94634.25;4958492;28;20198;-77
2022/03/09 07:13:41;;;;;;;21.05;10.18;;;;;;;1.74;59.11;94643.31;4962232;28;20358;-78
2022/03/09 07:16:09;;;;;;;16.75;7.93;;;;;;;1.63;59.34;94636.41;4959375;28;20298;-77
2022/03/09 07:18:36;;;;;;;18.80;10.60;;;;;;;2.81;59.16;94630.97;4962072;28;20199;-78
2022/03/09 07:21:03;;;;;;;23.55;10.05;;;;;;;2.51;58.53;94625.84;4963470;28;20230;-78
2022/03/09 07:23:30;;;;;;;20.70;8.68;;;;;;;1.54;60.65;94643.34;4959541;28;20651;-79
2022/03/09 07:25:57;;;;;;;11.35;6.25;;;;;;;1.17;60.97;94643.66;4957343;28;20195;-79
2022/03/09 07:28:23;;;;;;;19.55;9.55;;;;;;;0.78;62.26;94652.22;4958967;28;20547;-80
2022/03/09 07:30:50;;;;;;;16.25;8.32;;;;;;;0.26;65.30;94644.41;4958813;28;20197;-79
2022/03/09 07:33:21;;;;;;;9.95;4.35;;;;;;;-0.54;64.76;94646.47;4956673;28;20237;-80
2022/03/09 07:35:48;;;;;;;11.27;5.40;;;;;;;-0.62;65.85;94648.81;4959815;28;20205;-80
2022/03/09 07:38:15;;;;;;;17.08;8.43;;;;;;;-0.55;67.19;94649.41;4961676;28;20208;-79
2022/03/09 07:40:49;;;;;;;13.02;5.97;;;;;;;0.05;66.56;94645.41;4961215;28;20203;-79
2022/03/09 07:43:16;;;;;;;23.08;9.50;;;;;;;0.34;64.63;94630.56;4959377;28;20187;-79
2022/03/09 07:45:43;;;;;;;25.92;11.90;;;;;;;0.90;63.76;94638.63;4960181;28;20226;-79
2022/03/09 07:48:11;;;;;;;12.95;6.75;;;;;;;1.39;60.44;94636.97;4959441;28;20208;-77
2022/03/09 07:50:39;;;;;;;11.07;5.18;;;;;;;0.85;60.97;94641.28;4948165;28;20211;-78
2022/03/09 07:53:07;;;;;;;9.48;4.88;;;;;;;1.48;60.72;94634.56;4933928;29;20219;-79
2022/03/09 07:55:34;;;;;;;19.17;7.60;;;;;;;1.88;59.57;94622.16;4939410;29;20218;-78
2022/03/09 07:58:01;;;;;;;16.50;7.30;;;;;;;1.52;59.22;94629.47;4952573;28;20344;-78
2022/03/09 08:00:28;;;;;;;22.88;10.15;;;;;;;1.19;60.21;94634.34;4937710;29;20267;-76
2022/03/09 08:02:55;;;;;;;15.40;7.70;;;;;;;1.52;60.82;94616.13;4939556;29;20598;-76
2022/03/09 08:05:22;;;;;;;19.30;9.25;;;;;;;2.02;59.04;94618.63;4952648;28;20398;-79
2022/03/09 08:07:50;;;;;;;25.42;7.82;;;;;;;2.27;57.51;94619.56;4938449;29;20555;-80
2022/03/09 08:10:18;;;;;;;11.00;5.13;;;;;;;1.54;59.67;94632.66;4945052;28;20237;-80
2022/03/09 08:12:45;;;;;;;11.27;6.28;;;;;;;0.76;61.14;94637.56;4946079;29;20213;-78
2022/03/09 08:15:12;;;;;;;25.10;10.95;;;;;;;1.16;62.18;94632.19;4941509;29;20270;-81
2022/03/09 08:17:39;;;;;;;12.43;7.13;;;;;;;1.12;60.47;94633.81;4952314;29;20681;-80
2022/03/09 08:20:07;;;;;;;18.13;8.48;;;;;;;1.67;60.04;94624.09;4943930;28;20214;-81
2022/03/09 08:22:34;;;;;;;31.15;11.57;;;;;;;2.26;60.51;94623.31;4947806;28;20274;-79
2022/03/09 08:25:03;;;;;;;12.13;5.43;;;;;;;1.47;59.58;94632.97;4948245;28;20215;-76
2022/03/09 08:27:30;;;;;;;18.92;8.38;;;;;;;1.77;61.41;94624.88;4949756;29;20211;-77
2022/03/09 08:29:57;;;;;;;12.00;5.43;;;;;;;1.48;60.38;94628.44;4951063;28;20201;-75
2022/03/09 08:32:24;;;;;;;19.85;9.00;;;;;;;2.43;59.80;94613.06;4940913;28;20295;-79
2022/03/09 08:34:51;;;;;;;15.15;8.25;;;;;;;2.51;57.86;94609.78;4946486;29;20570;-77
2022/03/09 08:37:18;;;;;;;13.73;7.28;;;;;;;1.36;61.38;94621.50;4942908;28;20214;-79
2022/03/09 08:39:47;;;;;;;20.42;10.10;;;;;;;1.09;61.36;94620.22;4945703;28;20214;-77
2022/03/09 08:42:15;;;;;;;12.60;6.35;;;;;;;1.13;62.54;94621.25;4953147;28;20235;-79
2022/03/09 08:44:42;;;;;;;11.55;5.68;;;;;;;1.46;60.02;94614.56;4956059;28;20242;-78
2022/03/09 08:47:10;;;;;;;11.50;6.85;;;;;;;1.50;60.87;94608.41;4943647;28;20210;-81
2022/03/09 08:49:39;;;;;;;11.50;4.63;;;;;;;1.37;60.39;94617.75;4945985;28;20219;-81
2022/03/09 08:52:10;;;;;;;13.85;7.20;;;;;;;1.53;60.07;94615.84;4940996;29;20823;-79
2022/03/09 08:54:37;;;;;;;24.25;11.23;;;;;;;2.38;61.06;94602.41;4944659;28;20200;-80
2022/03/09 08:57:05;;;;;;;17.98;8.50;;;;;;;2.36;58.93;94601.88;4950009;29;20204;-80
2022/03/09 08:59:33;;;;;;;18.40;8.68;;;;;;;2.57;58.84;94605.22;4948560;29;20577;-80
2022/03/09 09:02:00;;;;;;;9.27;5.25;;;;;;;2.85;56.35;94605.28;4943236;28;20253;-80
2022/03/09 09:04:27;;;;;;;14.98;8.48;;;;;;;1.75;58.93;94596.84;4944127;28;20220;-79
2022/03/09 09:06:54;;;;;;;18.92;10.57;;;;;;;2.25;59.82;94600.34;4949568;29;20394;-81
2022/03/09 09:09:21;;;;;;;18.58;9.98;;;;;;;1.90;58.85;94594.13;4948659;29;20209;-79
2022/03/09 09:11:48;;;;;;;20.33;9.35;;;;;;;2.39;60.71;94591.44;4942548;28;20266;-78
2022/03/09 09:14:15;;;;;;;25.33;11.45;;;;;;;2.87;61.61;94585.50;4942961;28;20208;-78
2022/03/09 09:16:44;;;;;;;13.50;7.65;;;;;;;2.74;59.66;94589.56;4948697;29;20714;-78
2022/03/09 09:19:10;;;;;;;22.23;9.95;;;;;;;2.47;60.23;94598.06;4949276;29;20207;-80
2022/03/09 09:21:38;;;;;;;22.10;9.68;;;;;;;2.58;60.71;94593.47;4943037;29;20231;-79
2022/03/09 09:24:05;;;;;;;23.90;10.60;;;;;;;2.87;60.41;94596.19;4941839;28;20671;-78
2022/03/09 09:26:33;;;;;;;25.45;10.10;;;;;;;3.27;57.13;94600.38;4948366;29;20218;-78
2022/03/09 09:28:59;;;;;;;12.10;5.50;;;;;;;2.28;58.99;94594.44;4948994;29;20607;-78
2022/03/09 09:31:26;;;;;;;10.07;6.18;;;;;;;2.53;60.21;94596.94;4943285;29;20210;-78
2022/03/09 09:33:55;;;;;;;25.00;11.40;;;;;;;3.15;58.99;94577.44;4941772;28;20243;-78
2022/03/09 09:36:21;;;;;;;15.85;7.20;;;;;;;2.39;58.75;94590.63;4946526;29;20218;-77
2022/03/09 09:38:49;;;;;;;21.80;12.40;;;;;;;2.37;61.59;94592.78;4949219;29;20203;-78
2022/03/09 09:41:19;;;;;;;15.80;7.72;;;;;;;2.05;58.10;94596.69;4952966;28;20244;-77
2022/03/09 09:43:46;;;;;;;16.60;8.45;;;;;;;1.90;60.38;94594.13;4955903;28;20239;-77
2022/03/09 09:46:15;;;;;;;18.63;9.52;;;;;;;2.22;60.87;94596.34;4944594;29;20569;-77
2022/03/09 09:48:43;;;;;;;13.75;7.45;;;;;;;1.48;59.51;94601.75;4939054;28;20215;-76
2022/03/09 09:51:13;;;;;;;14.70;6.75;;;;;;;2.06;61.31;94592.94;4945005;29;20214;-76
2022/03/09 09:53:42;;;;;;;16.67;9.00;;;;;;;2.40;58.60;94592.22;4954692;28;20246;-76
2022/03/09 09:56:09;;;;;;;14.07;5.90;;;;;;;2.57;58.09;94598.00;4943999;28;20639;-76
2022/03/09 09:58:37;;;;;;;24.20;10.75;;;;;;;2.76;58.18;94595.44;4953352;29;20211;-77
2022/03/09 10:01:06;;;;;;;12.70;7.35;;;;;;;2.56;57.17;94592.94;4954149;29;20211;-77
2022/03/09 10:03:33;;;;;;;13.30;7.22;;;;;;;2.41;56.95;94577.78;4941492;28;20239;-75
2022/03/09 10:06:00;;;;;;;14.27;6.60;;;;;;;2.92;57.26;94588.91;4943493;28;20203;-75
2022/03/09 10:08:28;;;;;;;17.25;8.25;;;;;;;3.20;55.49;94584.63;4953298;29;20207;-77
2022/03/09 10:10:57;;;;;;;16.63;7.32;;;;;;;3.31;54.06;94585.34;4954387;28;20207;-76
2022/03/09 10:13:27;;;;;;;9.45;6.00;;;;;;;2.87;53.13;94588.16;4941106;28;20682;-76
2022/03/09 10:16:15;;;;;;;11.82;6.32;;;;;;;2.77;53.53;94587.16;4941506;28;20208;-76
2022/03/09 10:18:49;;;;;;;9.00;4.82;;;;;;;3.10;53.61;94568.69;4945253;28;20750;-75
2022/03/09 10:21:19;;;;;;;15.93;8.38;;;;;;;2.06;56.37;94592.13;4947938;29;20287;-77
2022/03/09 10:23:56;;;;;;;13.80;6.55;;;;;;;2.09;58.00;94589.72;4946945;29;20236;-77
2022/03/09 10:26:28;;;;;;;13.80;7.50;;;;;;;1.89;58.99;94587.16;4941033;28;20241;-77
2022/03/09 10:28:56;;;;;;;19.00;6.97;;;;;;;2.23;58.68;94587.25;4941598;28;20750;-76
2022/03/09 10:31:37;;;;;;;10.40;6.13;;;;;;;1.93;59.70;94580.19;4941661;29;20222;-77
2022/03/09 10:34:06;;;;;;;8.75;4.63;;;;;;;2.27;60.43;94582.97;4941113;28;20262;-77
2022/03/09 10:36:33;;;;;;;11.75;6.05;;;;;;;2.24;59.93;94580.03;4945672;28;20299;-75
2022/03/09 10:39:15;;;;;;;12.20;6.53;;;;;;;2.57;58.87;94571.28;4947495;29;20207;-75
2022/03/09 10:41:43;;;;;;;12.23;6.82;;;;;;;2.70;58.52;94578.66;4947019;28;20203;-77
2022/03/09 10:44:10;;;;;;;15.50;7.13;;;;;;;3.31;57.35;94570.06;4953434;28;20737;-76
2022/03/09 10:46:45;;;;;;;15.20;6.93;;;;;;;3.56;56.32;94571.69;4941059;28;20211;-76
2022/03/09 10:49:13;;;;;;;15.85;6.22;;;;;;;2.92;58.29;94569.38;4941655;29;20594;-75
2022/03/09 10:51:44;;;;;;;13.40;5.95;;;;;;;3.21;56.58;94559.47;4940572;28;20656;-75
2022/03/09 10:54:17;;;;;;;14.85;7.63;;;;;;;3.47;56.89;94563.47;4945604;28;20204;-74
2022/03/09 10:56:45;;;;;;;5.53;2.95;;;;;;;3.69;54.95;94554.91;4946593;29;20282;-74
2022/03/09 10:59:15;;;;;;;14.90;6.47;;;;;;;3.82;54.99;94551.56;4943906;29;20207;-75
2022/03/09 11:01:44;;;;;;;12.98;6.15;;;;;;;2.94;55.40;94561.88;4940450;28;20210;-73
2022/03/09 11:04:16;;;;;;;2.65;1.77;;;;;;;2.75;51.51;94559.88;4943320;28;20246;-76
2022/03/09 11:06:46;;;;;;;13.75;5.53;;;;;;;3.20;55.76;94552.53;4938445;29;20234;-74
2022/03/09 11:09:17;;;;;;;12.20;5.68;;;;;;;3.29;52.68;94550.00;4941677;28;20212;-75
2022/03/09 11:11:46;;;;;;;8.75;5.28;;;;;;;3.50;51.65;94536.13;4946835;29;20232;-74
2022/03/09 11:14:14;;;;;;;10.43;4.93;;;;;;;3.60;50.01;94535.22;4946102;29;20214;-75
2022/03/09 11:16:42;;;;;;;9.10;4.15;;;;;;;3.33;51.71;94545.69;4941017;29;20195;-74
2022/03/09 11:19:10;;;;;;;5.68;3.20;;;;;;;3.18;51.25;94543.97;4939748;28;20389;-77
2022/03/09 11:21:37;;;;;;;9.50;5.00;;;;;;;3.38;50.07;94543.78;4946243;28;20751;-76
2022/03/09 11:24:08;;;;;;;11.02;5.03;;;;;;;3.58;50.86;94535.50;4946837;29;20260;-76
2022/03/09 11:26:42;;;;;;;6.07;2.85;;;;;;;3.54;48.66;94542.53;4941760;29;20210;-75
2022/03/09 11:29:12;;;;;;;7.82;3.90;;;;;;;3.55;48.91;94537.97;4940738;28;20203;-76
2022/03/09 11:31:44;;;;;;;14.90;7.93;;;;;;;4.78;46.60;94538.69;4943729;28;20207;-76
2022/03/09 11:34:33;;;;;;;7.50;4.35;;;;;;;5.13;47.12;94542.63;4946391;29;20297;-75